sensor_id;sensor_type;location;lat;lon;timestamp;temperature;humidity
17728;DHT22;8984;49.268;12.302;2024-03-02T00:01:29;9.40;99.90
17728;DHT22;8984;49.268;12.302;2024-03-02T00:04:05;9.40;99.90
17728;DHT22;8984;49.268;12.302;2024-03-02T00:06:46;9.40;99.90
17728;DHT22;8984;49.268;12.302;2024-03-02T00:09:34;9.30;99.90
17728;DHT22;8984;49.268;12.302;2024-03-02T00:12:10;9.30;99.90
17728;DHT22;8984;49.268;12.302;2024-03-02T00:14:49;9.30;99.90
17728;DHT22;8984;49.268;12.302;2024-03-02T00:17:24;9.30;99.90
17728;DHT22;8984;49.268;12.302;2024-03-02T00:20:03;9.30;99.90
17728;DHT22;8984;49.268;12.302;2024-03-02T00:22:42;9.30;99.90
17728;DHT22;8984;49.268;12.302;2024-03-02T00:25:11;9.30;99.90
17728;DHT22;8984;49.268;12.302;2024-03-02T00:27:40;9.30;99.90
17728;DHT22;8984;49.268;12.302;2024-03-02T00:30:39;9.30;99.90
17728;DHT22;8984;49.268;12.302;2024-03-02T00:33:14;9.30;99.90
17728;DHT22;8984;49.268;12.302;2024-03-02T00:35:44;9.30;99.90
17728;DHT22;8984;49.268;12.302;2024-03-02T00:38:23;9.30;99.90
17728;DHT22;8984;49.268;12.302;2024-03-02T00:41:07;9.30;99.90
17728;DHT22;8984;49.268;12.302;2024-03-02T00:46:46;9.20;99.90
17728;DHT22;8984;49.268;12.302;2024-03-02T00:49:25;9.20;99.90
17728;DHT22;8984;49.268;12.302;2024-03-02T00:52:31;9.20;99.90
17728;DHT22;8984;49.268;12.302;2024-03-02T00:54:59;9.20;99.90
17728;DHT22;8984;49.268;12.302;2024-03-02T00:57:35;9.10;99.90
17728;DHT22;8984;49.268;12.302;2024-03-02T01:00:06;9.20;99.90
17728;DHT22;8984;49.268;12.302;2024-03-02T01:02:42;9.20;99.90
17728;DHT22;8984;49.268;12.302;2024-03-02T01:05:22;9.20;99.90
17728;DHT22;8984;49.268;12.302;2024-03-02T01:08:19;9.20;99.90
17728;DHT22;8984;49.268;12.302;2024-03-02T01:11:12;9.20;99.90
17728;DHT22;8984;49.268;12.302;2024-03-02T01:16:35;9.20;99.90
17728;DHT22;8984;49.268;12.302;2024-03-02T01:19:03;9.20;99.90
17728;DHT22;8984;49.268;12.302;2024-03-02T01:21:30;9.30;99.90
17728;DHT22;8984;49.268;12.302;2024-03-02T01:23:57;9.20;99.90
17728;DHT22;8984;49.268;12.302;2024-03-02T01:26:24;9.20;99.90
17728;DHT22;8984;49.268;12.302;2024-03-02T01:28:50;9.20;99.90
17728;DHT22;8984;49.268;12.302;2024-03-02T01:31:17;9.20;99.90
17728;DHT22;8984;49.268;12.302;2024-03-02T01:33:45;9.20;99.90
17728;DHT22;8984;49.268;12.302;2024-03-02T01:36:12;9.20;99.90
17728;DHT22;8984;49.268;12.302;2024-03-02T01:38:39;9.20;99.90
17728;DHT22;8984;49.268;12.302;2024-03-02T01:41:06;9.20;99.90
17728;DHT22;8984;49.268;12.302;2024-03-02T01:43:33;9.20;99.90
17728;DHT22;8984;49.268;12.302;2024-03-02T01:46:00;9.40;99.90
17728;DHT22;8984;49.268;12.302;2024-03-02T01:48:27;9.20;99.90
17728;DHT22;8984;49.268;12.302;2024-03-02T01:50:55;9.20;99.90
17728;DHT22;8984;49.268;12.302;2024-03-02T01:53:23;9.20;99.90
17728;DHT22;8984;49.268;12.302;2024-03-02T01:55:50;9.20;99.90
17728;DHT22;8984;49.268;12.302;2024-03-02T01:58:16;9.30;99.90
17728;DHT22;8984;49.268;12.302;2024-03-02T02:00:43;9.20;99.90
17728;DHT22;8984;49.268;12.302;2024-03-02T02:03:12;9.20;99.90
17728;DHT22;8984;49.268;12.302;2024-03-02T02:05:39;9.20;99.90
17728;DHT22;8984;49.268;12.302;2024-03-02T02:08:09;9.20;99.90
17728;DHT22;8984;49.268;12.302;2024-03-02T02:10:36;9.20;99.90
17728;DHT22;8984;49.268;12.302;2024-03-02T02:13:03;9.20;99.90
17728;DHT22;8984;49.268;12.302;2024-03-02T02:15:30;9.20;99.90
17728;DHT22;8984;49.268;12.302;2024-03-02T02:17:58;9.20;99.90
17728;DHT22;8984;49.268;12.302;2024-03-02T02:20:25;9.20;99.90
17728;DHT22;8984;49.268;12.302;2024-03-02T02:22:55;9.20;99.90
17728;DHT22;8984;49.268;12.302;2024-03-02T02:25:22;9.20;99.90
17728;DHT22;8984;49.268;12.302;2024-03-02T02:27:49;9.40;99.90
17728;DHT22;8984;49.268;12.302;2024-03-02T02:30:19;9.20;99.90
17728;DHT22;8984;49.268;12.302;2024-03-02T02:32:46;9.20;99.90
17728;DHT22;8984;49.268;12.302;2024-03-02T02:35:13;9.40;99.90
17728;DHT22;8984;49.268;12.302;2024-03-02T02:37:40;9.30;99.90
17728;DHT22;8984;49.268;12.302;2024-03-02T02:40:10;9.30;99.90
17728;DHT22;8984;49.268;12.302;2024-03-02T02:42:36;9.20;99.90
17728;DHT22;8984;49.268;12.302;2024-03-02T02:45:04;9.20;99.90
17728;DHT22;8984;49.268;12.302;2024-03-02T02:47:31;9.20;99.90
17728;DHT22;8984;49.268;12.302;2024-03-02T02:50:01;9.20;99.90
17728;DHT22;8984;49.268;12.302;2024-03-02T02:52:31;9.20;99.90
17728;DHT22;8984;49.268;12.302;2024-03-02T02:54:59;9.20;99.90
17728;DHT22;8984;49.268;12.302;2024-03-02T02:57:28;9.30;99.90
17728;DHT22;8984;49.268;12.302;2024-03-02T02:59:56;9.20;99.90
17728;DHT22;8984;49.268;12.302;2024-03-02T03:02:23;9.20;99.90
17728;DHT22;8984;49.268;12.302;2024-03-02T03:04:50;9.20;99.90
17728;DHT22;8984;49.268;12.302;2024-03-02T03:07:17;9.20;99.90
17728;DHT22;8984;49.268;12.302;2024-03-02T03:09:43;9.20;99.90
17728;DHT22;8984;49.268;12.302;2024-03-02T03:12:10;9.20;99.90
17728;DHT22;8984;49.268;12.302;2024-03-02T03:14:40;9.20;99.90
17728;DHT22;8984;49.268;12.302;2024-03-02T03:17:07;9.10;99.90
17728;DHT22;8984;49.268;12.302;2024-03-02T03:19:34;9.10;99.90
17728;DHT22;8984;49.268;12.302;2024-03-02T03:22:01;9.10;99.90
17728;DHT22;8984;49.268;12.302;2024-03-02T03:24:29;9.10;99.90
17728;DHT22;8984;49.268;12.302;2024-03-02T03:26:56;9.00;99.90
17728;DHT22;8984;49.268;12.302;2024-03-02T03:29:22;9.10;99.90
17728;DHT22;8984;49.268;12.302;2024-03-02T03:31:51;9.00;99.90
17728;DHT22;8984;49.268;12.302;2024-03-02T03:34:18;9.20;99.90
17728;DHT22;8984;49.268;12.302;2024-03-02T03:36:45;9.00;99.90
17728;DHT22;8984;49.268;12.302;2024-03-02T03:39:12;8.90;99.90
17728;DHT22;8984;49.268;12.302;2024-03-02T03:41:40;8.90;99.90
17728;DHT22;8984;49.268;12.302;2024-03-02T03:44:07;8.90;99.90
17728;DHT22;8984;49.268;12.302;2024-03-02T03:46:34;8.90;99.90
17728;DHT22;8984;49.268;12.302;2024-03-02T03:49:02;8.90;99.90
17728;DHT22;8984;49.268;12.302;2024-03-02T03:51:30;8.80;99.90
17728;DHT22;8984;49.268;12.302;2024-03-02T03:53:57;8.90;99.90
17728;DHT22;8984;49.268;12.302;2024-03-02T03:56:24;8.80;99.90
17728;DHT22;8984;49.268;12.302;2024-03-02T03:58:51;8.80;99.90
17728;DHT22;8984;49.268;12.302;2024-03-02T04:01:18;8.80;99.90
17728;DHT22;8984;49.268;12.302;2024-03-02T04:03:45;8.80;99.90
17728;DHT22;8984;49.268;12.302;2024-03-02T04:06:13;8.70;99.90
17728;DHT22;8984;49.268;12.302;2024-03-02T04:08:42;8.70;99.90
17728;DHT22;8984;49.268;12.302;2024-03-02T04:11:09;8.70;99.90
17728;DHT22;8984;49.268;12.302;2024-03-02T04:13:35;8.60;99.90
17728;DHT22;8984;49.268;12.302;2024-03-02T04:16:03;8.60;99.90
17728;DHT22;8984;49.268;12.302;2024-03-02T04:18:30;8.60;99.90
17728;DHT22;8984;49.268;12.302;2024-03-02T04:20:57;8.80;99.90
17728;DHT22;8984;49.268;12.302;2024-03-02T04:23:26;8.60;99.90
17728;DHT22;8984;49.268;12.302;2024-03-02T04:25:53;8.70;99.90
17728;DHT22;8984;49.268;12.302;2024-03-02T04:28:20;8.70;99.90
17728;DHT22;8984;49.268;12.302;2024-03-02T04:30:46;8.60;99.90
17728;DHT22;8984;49.268;12.302;2024-03-02T04:33:13;8.60;99.90
17728;DHT22;8984;49.268;12.302;2024-03-02T04:35:40;8.70;99.90
17728;DHT22;8984;49.268;12.302;2024-03-02T04:38:07;8.70;99.90
17728;DHT22;8984;49.268;12.302;2024-03-02T04:40:35;8.80;99.90
17728;DHT22;8984;49.268;12.302;2024-03-02T04:43:02;8.80;99.90
17728;DHT22;8984;49.268;12.302;2024-03-02T04:45:29;8.80;99.90
17728;DHT22;8984;49.268;12.302;2024-03-02T04:47:56;8.80;99.90
17728;DHT22;8984;49.268;12.302;2024-03-02T04:50:26;8.70;99.90
17728;DHT22;8984;49.268;12.302;2024-03-02T04:53:03;8.80;99.90
17728;DHT22;8984;49.268;12.302;2024-03-02T04:55:32;8.80;99.90
17728;DHT22;8984;49.268;12.302;2024-03-02T04:58:36;8.90;99.90
17728;DHT22;8984;49.268;12.302;2024-03-02T05:01:06;8.80;99.90
17728;DHT22;8984;49.268;12.302;2024-03-02T05:06:31;8.80;99.90
17728;DHT22;8984;49.268;12.302;2024-03-02T05:09:10;8.80;99.90
17728;DHT22;8984;49.268;12.302;2024-03-02T05:11:42;8.80;99.90
17728;DHT22;8984;49.268;12.302;2024-03-02T05:14:45;8.70;99.90
17728;DHT22;8984;49.268;12.302;2024-03-02T05:17:20;8.70;99.90
17728;DHT22;8984;49.268;12.302;2024-03-02T05:20:06;8.70;99.90
17728;DHT22;8984;49.268;12.302;2024-03-02T05:22:40;8.70;99.90
17728;DHT22;8984;49.268;12.302;2024-03-02T05:25:18;8.70;99.90
17728;DHT22;8984;49.268;12.302;2024-03-02T05:28:04;8.70;99.90
17728;DHT22;8984;49.268;12.302;2024-03-02T05:31:17;8.70;99.90
17728;DHT22;8984;49.268;12.302;2024-03-02T05:33:54;8.80;99.90
17728;DHT22;8984;49.268;12.302;2024-03-02T05:36:38;8.80;99.90
17728;DHT22;8984;49.268;12.302;2024-03-02T05:39:24;8.80;99.90
17728;DHT22;8984;49.268;12.302;2024-03-02T05:42:04;8.80;99.90
17728;DHT22;8984;49.268;12.302;2024-03-02T05:44:35;8.80;99.90
17728;DHT22;8984;49.268;12.302;2024-03-02T05:47:22;8.80;99.90
17728;DHT22;8984;49.268;12.302;2024-03-02T05:50:09;8.80;99.90
17728;DHT22;8984;49.268;12.302;2024-03-02T05:52:58;8.80;99.90
17728;DHT22;8984;49.268;12.302;2024-03-02T05:55:28;8.80;99.90
17728;DHT22;8984;49.268;12.302;2024-03-02T05:58:00;8.70;99.90
17728;DHT22;8984;49.268;12.302;2024-03-02T06:00:47;8.70;99.90
17728;DHT22;8984;49.268;12.302;2024-03-02T06:03:18;8.70;99.90
17728;DHT22;8984;49.268;12.302;2024-03-02T06:05:47;8.60;99.90
17728;DHT22;8984;49.268;12.302;2024-03-02T06:08:29;8.70;99.90
17728;DHT22;8984;49.268;12.302;2024-03-02T06:11:05;8.60;99.90
17728;DHT22;8984;49.268;12.302;2024-03-02T06:13:41;8.60;99.90
17728;DHT22;8984;49.268;12.302;2024-03-02T06:16:25;8.60;99.90
17728;DHT22;8984;49.268;12.302;2024-03-02T06:19:13;8.60;99.90
17728;DHT22;8984;49.268;12.302;2024-03-02T06:21:48;8.60;99.90
17728;DHT22;8984;49.268;12.302;2024-03-02T06:24:21;8.70;99.90
17728;DHT22;8984;49.268;12.302;2024-03-02T06:26:58;8.70;99.90
17728;DHT22;8984;49.268;12.302;2024-03-02T06:29:39;8.70;99.90
17728;DHT22;8984;49.268;12.302;2024-03-02T06:32:22;8.80;99.90
17728;DHT22;8984;49.268;12.302;2024-03-02T06:34:52;8.80;99.90
17728;DHT22;8984;49.268;12.302;2024-03-02T06:37:22;8.80;99.90
17728;DHT22;8984;49.268;12.302;2024-03-02T06:39:50;8.80;99.90
17728;DHT22;8984;49.268;12.302;2024-03-02T06:42:23;8.80;99.90
17728;DHT22;8984;49.268;12.302;2024-03-02T06:44:51;8.90;99.90
17728;DHT22;8984;49.268;12.302;2024-03-02T06:47:21;8.90;99.90
17728;DHT22;8984;49.268;12.302;2024-03-02T06:50:02;8.90;99.90
17728;DHT22;8984;49.268;12.302;2024-03-02T06:52:51;9.00;99.90
17728;DHT22;8984;49.268;12.302;2024-03-02T06:55:20;9.00;99.90
17728;DHT22;8984;49.268;12.302;2024-03-02T07:00:43;9.00;99.90
17728;DHT22;8984;49.268;12.302;2024-03-02T07:03:11;9.00;99.90
17728;DHT22;8984;49.268;12.302;2024-03-02T07:05:41;9.00;99.90
17728;DHT22;8984;49.268;12.302;2024-03-02T07:08:13;9.00;99.90
17728;DHT22;8984;49.268;12.302;2024-03-02T07:10:51;9.00;99.90
17728;DHT22;8984;49.268;12.302;2024-03-02T07:13:18;9.00;99.90
17728;DHT22;8984;49.268;12.302;2024-03-02T07:15:46;9.00;99.90
17728;DHT22;8984;49.268;12.302;2024-03-02T07:18:40;9.00;99.90
17728;DHT22;8984;49.268;12.302;2024-03-02T07:21:13;9.00;99.90
17728;DHT22;8984;49.268;12.302;2024-03-02T07:23:43;9.00;99.90
17728;DHT22;8984;49.268;12.302;2024-03-02T07:26:11;9.10;99.90
17728;DHT22;8984;49.268;12.302;2024-03-02T07:28:51;9.10;99.90
17728;DHT22;8984;49.268;12.302;2024-03-02T07:31:23;9.10;99.90
17728;DHT22;8984;49.268;12.302;2024-03-02T07:33:51;9.10;99.90
17728;DHT22;8984;49.268;12.302;2024-03-02T07:36:23;9.10;99.90
17728;DHT22;8984;49.268;12.302;2024-03-02T07:38:50;9.00;99.90
17728;DHT22;8984;49.268;12.302;2024-03-02T07:41:20;9.00;99.90
17728;DHT22;8984;49.268;12.302;2024-03-02T07:43:52;9.00;99.90
17728;DHT22;8984;49.268;12.302;2024-03-02T07:46:29;8.90;99.90
17728;DHT22;8984;49.268;12.302;2024-03-02T07:49:06;8.90;99.90
17728;DHT22;8984;49.268;12.302;2024-03-02T07:51:40;8.90;99.90
17728;DHT22;8984;49.268;12.302;2024-03-02T07:54:15;9.00;99.90
17728;DHT22;8984;49.268;12.302;2024-03-02T07:56:56;9.00;99.90
17728;DHT22;8984;49.268;12.302;2024-03-02T07:59:28;9.10;99.90
17728;DHT22;8984;49.268;12.302;2024-03-02T08:01:58;9.10;99.90
17728;DHT22;8984;49.268;12.302;2024-03-02T08:04:30;9.10;99.90
17728;DHT22;8984;49.268;12.302;2024-03-02T08:07:09;9.10;99.90
17728;DHT22;8984;49.268;12.302;2024-03-02T08:09:37;9.20;99.90
17728;DHT22;8984;49.268;12.302;2024-03-02T08:12:10;9.10;99.90
17728;DHT22;8984;49.268;12.302;2024-03-02T08:14:38;9.10;99.90
17728;DHT22;8984;49.268;12.302;2024-03-02T08:17:10;9.10;99.90
17728;DHT22;8984;49.268;12.302;2024-03-02T08:19:50;9.20;99.90
17728;DHT22;8984;49.268;12.302;2024-03-02T08:22:33;9.30;99.90
17728;DHT22;8984;49.268;12.302;2024-03-02T08:25:01;9.40;99.90
17728;DHT22;8984;49.268;12.302;2024-03-02T08:27:44;9.40;99.90
17728;DHT22;8984;49.268;12.302;2024-03-02T08:30:13;9.60;99.90
17728;DHT22;8984;49.268;12.302;2024-03-02T08:32:41;9.60;99.90
17728;DHT22;8984;49.268;12.302;2024-03-02T08:35:10;9.60;99.90
17728;DHT22;8984;49.268;12.302;2024-03-02T08:37:57;9.80;99.90
17728;DHT22;8984;49.268;12.302;2024-03-02T08:40:28;9.90;99.90
17728;DHT22;8984;49.268;12.302;2024-03-02T08:43:12;10.00;99.90
17728;DHT22;8984;49.268;12.302;2024-03-02T08:45:41;10.00;99.90
17728;DHT22;8984;49.268;12.302;2024-03-02T08:48:11;9.90;99.90
17728;DHT22;8984;49.268;12.302;2024-03-02T08:50:40;9.90;99.90
17728;DHT22;8984;49.268;12.302;2024-03-02T08:53:13;9.90;99.90
17728;DHT22;8984;49.268;12.302;2024-03-02T08:55:45;10.00;99.90
17728;DHT22;8984;49.268;12.302;2024-03-02T08:58:22;10.00;99.90
17728;DHT22;8984;49.268;12.302;2024-03-02T09:00:50;10.10;99.90
17728;DHT22;8984;49.268;12.302;2024-03-02T09:03:18;10.20;99.90
17728;DHT22;8984;49.268;12.302;2024-03-02T09:05:47;10.20;99.90
17728;DHT22;8984;49.268;12.302;2024-03-02T09:08:17;10.20;99.90
17728;DHT22;8984;49.268;12.302;2024-03-02T09:10:48;10.20;99.90
17728;DHT22;8984;49.268;12.302;2024-03-02T09:13:17;10.30;99.90
17728;DHT22;8984;49.268;12.302;2024-03-02T09:15:44;10.30;99.90
17728;DHT22;8984;49.268;12.302;2024-03-02T09:18:14;10.40;99.90
17728;DHT22;8984;49.268;12.302;2024-03-02T09:20:43;10.50;99.90
17728;DHT22;8984;49.268;12.302;2024-03-02T09:23:13;10.60;99.90
17728;DHT22;8984;49.268;12.302;2024-03-02T09:25:44;10.70;99.90
17728;DHT22;8984;49.268;12.302;2024-03-02T09:28:16;10.90;99.90
17728;DHT22;8984;49.268;12.302;2024-03-02T09:31:02;10.80;99.90
17728;DHT22;8984;49.268;12.302;2024-03-02T09:33:34;10.70;99.90
17728;DHT22;8984;49.268;12.302;2024-03-02T09:36:04;10.70;99.90
17728;DHT22;8984;49.268;12.302;2024-03-02T09:38:34;10.70;99.90
17728;DHT22;8984;49.268;12.302;2024-03-02T09:41:07;10.70;99.90
17728;DHT22;8984;49.268;12.302;2024-03-02T09:43:36;10.70;99.90
17728;DHT22;8984;49.268;12.302;2024-03-02T09:46:05;10.70;99.90
17728;DHT22;8984;49.268;12.302;2024-03-02T09:48:42;10.70;99.90
17728;DHT22;8984;49.268;12.302;2024-03-02T09:51:20;10.80;99.90
17728;DHT22;8984;49.268;12.302;2024-03-02T09:53:52;10.80;99.90
17728;DHT22;8984;49.268;12.302;2024-03-02T09:56:23;10.80;99.90
17728;DHT22;8984;49.268;12.302;2024-03-02T09:59:01;10.90;99.90
17728;DHT22;8984;49.268;12.302;2024-03-02T10:01:30;11.10;99.90
17728;DHT22;8984;49.268;12.302;2024-03-02T10:04:00;11.20;99.90
17728;DHT22;8984;49.268;12.302;2024-03-02T10:06:30;11.40;99.90
17728;DHT22;8984;49.268;12.302;2024-03-02T10:09:00;11.40;99.90
17728;DHT22;8984;49.268;12.302;2024-03-02T10:11:41;11.50;99.90
17728;DHT22;8984;49.268;12.302;2024-03-02T10:14:11;11.60;99.90
17728;DHT22;8984;49.268;12.302;2024-03-02T10:16:43;11.80;99.90
17728;DHT22;8984;49.268;12.302;2024-03-02T10:19:20;11.90;99.90
17728;DHT22;8984;49.268;12.302;2024-03-02T10:21:48;12.00;99.90
17728;DHT22;8984;49.268;12.302;2024-03-02T10:24:17;12.20;99.90
17728;DHT22;8984;49.268;12.302;2024-03-02T10:26:49;12.40;99.90
17728;DHT22;8984;49.268;12.302;2024-03-02T10:29:18;12.60;99.90
17728;DHT22;8984;49.268;12.302;2024-03-02T10:31:54;12.80;99.90
17728;DHT22;8984;49.268;12.302;2024-03-02T10:34:25;12.90;99.90
17728;DHT22;8984;49.268;12.302;2024-03-02T10:36:52;13.10;99.90
17728;DHT22;8984;49.268;12.302;2024-03-02T10:39:21;13.10;99.90
17728;DHT22;8984;49.268;12.302;2024-03-02T10:41:53;13.30;99.90
17728;DHT22;8984;49.268;12.302;2024-03-02T10:44:23;13.60;99.90
17728;DHT22;8984;49.268;12.302;2024-03-02T10:46:53;13.70;99.90
17728;DHT22;8984;49.268;12.302;2024-03-02T10:49:23;13.80;99.90
17728;DHT22;8984;49.268;12.302;2024-03-02T10:51:54;14.20;99.90
17728;DHT22;8984;49.268;12.302;2024-03-02T10:54:21;14.10;99.90
17728;DHT22;8984;49.268;12.302;2024-03-02T10:56:56;14.10;99.90
17728;DHT22;8984;49.268;12.302;2024-03-02T10:59:28;14.00;99.90
17728;DHT22;8984;49.268;12.302;2024-03-02T11:02:04;13.80;99.90
17728;DHT22;8984;49.268;12.302;2024-03-02T11:04:33;14.00;99.90
17728;DHT22;8984;49.268;12.302;2024-03-02T11:07:04;13.90;99.90
17728;DHT22;8984;49.268;12.302;2024-03-02T11:09:38;13.90;99.90
17728;DHT22;8984;49.268;12.302;2024-03-02T11:12:19;14.00;99.90
17728;DHT22;8984;49.268;12.302;2024-03-02T11:14:51;14.30;99.90
17728;DHT22;8984;49.268;12.302;2024-03-02T11:17:19;14.30;99.90
17728;DHT22;8984;49.268;12.302;2024-03-02T11:19:49;14.50;99.90
17728;DHT22;8984;49.268;12.302;2024-03-02T11:22:17;14.40;99.90
17728;DHT22;8984;49.268;12.302;2024-03-02T11:25:13;14.50;99.90
17728;DHT22;8984;49.268;12.302;2024-03-02T11:28:16;14.60;99.90
17728;DHT22;8984;49.268;12.302;2024-03-02T11:31:02;14.70;99.90
17728;DHT22;8984;49.268;12.302;2024-03-02T11:33:30;15.00;99.90
17728;DHT22;8984;49.268;12.302;2024-03-02T11:35:58;15.10;99.90
17728;DHT22;8984;49.268;12.302;2024-03-02T11:38:31;15.20;99.90
17728;DHT22;8984;49.268;12.302;2024-03-02T11:41:05;15.00;99.90
17728;DHT22;8984;49.268;12.302;2024-03-02T11:43:43;15.00;99.90
17728;DHT22;8984;49.268;12.302;2024-03-02T11:46:21;15.10;99.90
17728;DHT22;8984;49.268;12.302;2024-03-02T11:49:06;15.10;99.90
17728;DHT22;8984;49.268;12.302;2024-03-02T11:51:40;15.40;99.90
17728;DHT22;8984;49.268;12.302;2024-03-02T11:54:27;15.60;99.90
17728;DHT22;8984;49.268;12.302;2024-03-02T11:57:00;15.80;99.90
17728;DHT22;8984;49.268;12.302;2024-03-02T11:59:34;16.10;99.90
17728;DHT22;8984;49.268;12.302;2024-03-02T12:02:06;16.30;99.90
17728;DHT22;8984;49.268;12.302;2024-03-02T12:04:44;16.20;99.90
17728;DHT22;8984;49.268;12.302;2024-03-02T12:07:20;15.90;99.90
17728;DHT22;8984;49.268;12.302;2024-03-02T12:10:01;16.00;99.90
17728;DHT22;8984;49.268;12.302;2024-03-02T12:12:32;15.90;99.90
17728;DHT22;8984;49.268;12.302;2024-03-02T12:15:23;15.90;99.90
17728;DHT22;8984;49.268;12.302;2024-03-02T12:17:56;16.20;99.90
17728;DHT22;8984;49.268;12.302;2024-03-02T12:20:34;16.20;99.90
17728;DHT22;8984;49.268;12.302;2024-03-02T12:23:02;16.30;99.90
17728;DHT22;8984;49.268;12.302;2024-03-02T12:25:35;16.20;99.90
17728;DHT22;8984;49.268;12.302;2024-03-02T12:28:11;16.00;99.90
17728;DHT22;8984;49.268;12.302;2024-03-02T12:30:55;15.90;99.90
17728;DHT22;8984;49.268;12.302;2024-03-02T12:33:30;15.80;99.90
17728;DHT22;8984;49.268;12.302;2024-03-02T12:36:01;15.70;99.90
17728;DHT22;8984;49.268;12.302;2024-03-02T12:38:31;15.60;99.90
17728;DHT22;8984;49.268;12.302;2024-03-02T12:40:58;15.70;99.90
17728;DHT22;8984;49.268;12.302;2024-03-02T12:43:31;15.90;99.90
17728;DHT22;8984;49.268;12.302;2024-03-02T12:46:08;15.90;99.90
17728;DHT22;8984;49.268;12.302;2024-03-02T12:48:56;15.90;99.90
17728;DHT22;8984;49.268;12.302;2024-03-02T12:52:02;15.90;99.90
17728;DHT22;8984;49.268;12.302;2024-03-02T12:54:31;15.90;99.90
17728;DHT22;8984;49.268;12.302;2024-03-02T12:56:59;15.80;99.90
17728;DHT22;8984;49.268;12.302;2024-03-02T12:59:26;15.80;99.90
17728;DHT22;8984;49.268;12.302;2024-03-02T13:02:01;15.70;99.90
17728;DHT22;8984;49.268;12.302;2024-03-02T13:04:30;15.60;99.90
17728;DHT22;8984;49.268;12.302;2024-03-02T13:06:57;15.50;99.90
17728;DHT22;8984;49.268;12.302;2024-03-02T13:09:37;15.50;99.90
17728;DHT22;8984;49.268;12.302;2024-03-02T13:12:11;15.50;99.90
17728;DHT22;8984;49.268;12.302;2024-03-02T13:14:39;15.50;99.90
17728;DHT22;8984;49.268;12.302;2024-03-02T13:17:12;15.50;99.90
17728;DHT22;8984;49.268;12.302;2024-03-02T13:19:50;15.50;99.90
17728;DHT22;8984;49.268;12.302;2024-03-02T13:22:19;15.60;99.90
17728;DHT22;8984;49.268;12.302;2024-03-02T13:24:49;15.70;99.90
17728;DHT22;8984;49.268;12.302;2024-03-02T13:27:17;15.60;99.90
17728;DHT22;8984;49.268;12.302;2024-03-02T13:29:53;15.70;99.90
17728;DHT22;8984;49.268;12.302;2024-03-02T13:32:25;15.70;99.90
17728;DHT22;8984;49.268;12.302;2024-03-02T13:34:53;15.50;99.90
17728;DHT22;8984;49.268;12.302;2024-03-02T13:37:25;15.60;99.90
17728;DHT22;8984;49.268;12.302;2024-03-02T13:39:57;15.60;99.90
17728;DHT22;8984;49.268;12.302;2024-03-02T13:42:30;15.80;99.90
17728;DHT22;8984;49.268;12.302;2024-03-02T13:45:00;15.90;99.90
17728;DHT22;8984;49.268;12.302;2024-03-02T13:47:49;15.90;99.90
17728;DHT22;8984;49.268;12.302;2024-03-02T13:50:34;15.90;99.90
17728;DHT22;8984;49.268;12.302;2024-03-02T13:53:21;15.80;99.90
17728;DHT22;8984;49.268;12.302;2024-03-02T13:55:49;15.50;99.90
17728;DHT22;8984;49.268;12.302;2024-03-02T13:58:27;15.40;99.90
17728;DHT22;8984;49.268;12.302;2024-03-02T14:00:58;15.40;99.90
17728;DHT22;8984;49.268;12.302;2024-03-02T14:03:47;15.50;99.90
17728;DHT22;8984;49.268;12.302;2024-03-02T14:06:17;15.60;99.90
17728;DHT22;8984;49.268;12.302;2024-03-02T14:08:47;15.60;99.90
17728;DHT22;8984;49.268;12.302;2024-03-02T14:11:18;15.80;99.90
17728;DHT22;8984;49.268;12.302;2024-03-02T14:13:49;15.90;99.90
17728;DHT22;8984;49.268;12.302;2024-03-02T14:16:27;16.00;99.90
17728;DHT22;8984;49.268;12.302;2024-03-02T14:19:16;16.00;99.90
17728;DHT22;8984;49.268;12.302;2024-03-02T14:22:07;16.10;99.90
17728;DHT22;8984;49.268;12.302;2024-03-02T14:24:45;16.00;99.90
17728;DHT22;8984;49.268;12.302;2024-03-02T14:27:16;15.80;99.90
17728;DHT22;8984;49.268;12.302;2024-03-02T14:29:51;15.90;99.90
17728;DHT22;8984;49.268;12.302;2024-03-02T14:32:19;15.80;99.90
17728;DHT22;8984;49.268;12.302;2024-03-02T14:34:51;15.90;99.90
17728;DHT22;8984;49.268;12.302;2024-03-02T14:37:25;15.90;99.90
17728;DHT22;8984;49.268;12.302;2024-03-02T14:39:52;15.80;99.90
17728;DHT22;8984;49.268;12.302;2024-03-02T14:42:28;15.40;99.90
17728;DHT22;8984;49.268;12.302;2024-03-02T14:44:57;15.40;99.90
17728;DHT22;8984;49.268;12.302;2024-03-02T14:47:26;15.10;99.90
17728;DHT22;8984;49.268;12.302;2024-03-02T14:50:04;15.00;99.90
17728;DHT22;8984;49.268;12.302;2024-03-02T14:52:36;14.80;99.90
17728;DHT22;8984;49.268;12.302;2024-03-02T14:55:16;14.70;99.90
17728;DHT22;8984;49.268;12.302;2024-03-02T14:57:47;14.80;99.90
17728;DHT22;8984;49.268;12.302;2024-03-02T15:00:24;14.70;99.90
17728;DHT22;8984;49.268;12.302;2024-03-02T15:02:56;14.70;99.90
17728;DHT22;8984;49.268;12.302;2024-03-02T15:05:28;14.90;99.90
17728;DHT22;8984;49.268;12.302;2024-03-02T15:07:59;15.00;99.90
17728;DHT22;8984;49.268;12.302;2024-03-02T15:10:46;15.10;99.90
17728;DHT22;8984;49.268;12.302;2024-03-02T15:13:15;14.90;99.90
17728;DHT22;8984;49.268;12.302;2024-03-02T15:15:43;14.60;99.90
17728;DHT22;8984;49.268;12.302;2024-03-02T15:18:11;14.50;99.90
17728;DHT22;8984;49.268;12.302;2024-03-02T15:20:40;14.40;99.90
17728;DHT22;8984;49.268;12.302;2024-03-02T15:23:09;14.40;99.90
17728;DHT22;8984;49.268;12.302;2024-03-02T15:25:36;14.30;99.90
17728;DHT22;8984;49.268;12.302;2024-03-02T15:28:21;14.30;99.90
17728;DHT22;8984;49.268;12.302;2024-03-02T15:30:49;14.20;99.90
17728;DHT22;8984;49.268;12.302;2024-03-02T15:33:17;14.20;99.90
17728;DHT22;8984;49.268;12.302;2024-03-02T15:36:01;14.20;99.90
17728;DHT22;8984;49.268;12.302;2024-03-02T15:38:38;14.20;99.90
17728;DHT22;8984;49.268;12.302;2024-03-02T15:41:11;14.00;99.90
17728;DHT22;8984;49.268;12.302;2024-03-02T15:43:53;14.10;99.90
17728;DHT22;8984;49.268;12.302;2024-03-02T15:46:21;14.00;99.90
17728;DHT22;8984;49.268;12.302;2024-03-02T15:48:52;14.00;99.90
17728;DHT22;8984;49.268;12.302;2024-03-02T15:51:24;13.90;99.90
17728;DHT22;8984;49.268;12.302;2024-03-02T15:53:53;13.90;99.90
17728;DHT22;8984;49.268;12.302;2024-03-02T15:56:21;13.90;99.90
17728;DHT22;8984;49.268;12.302;2024-03-02T15:58:52;13.80;99.90
17728;DHT22;8984;49.268;12.302;2024-03-02T16:01:24;13.70;99.90
17728;DHT22;8984;49.268;12.302;2024-03-02T16:03:53;13.60;99.90
17728;DHT22;8984;49.268;12.302;2024-03-02T16:06:27;13.60;99.90
17728;DHT22;8984;49.268;12.302;2024-03-02T16:08:57;13.60;99.90
17728;DHT22;8984;49.268;12.302;2024-03-02T16:11:25;13.50;99.90
17728;DHT22;8984;49.268;12.302;2024-03-02T16:13:53;13.60;99.90
17728;DHT22;8984;49.268;12.302;2024-03-02T16:16:22;13.70;99.90
17728;DHT22;8984;49.268;12.302;2024-03-02T16:18:56;13.70;99.90
17728;DHT22;8984;49.268;12.302;2024-03-02T16:21:26;13.70;99.90
17728;DHT22;8984;49.268;12.302;2024-03-02T16:24:01;13.50;99.90
17728;DHT22;8984;49.268;12.302;2024-03-02T16:26:38;13.50;99.90
17728;DHT22;8984;49.268;12.302;2024-03-02T16:29:05;13.60;99.90